Time;durP1;ratioP1;P1;durP2;ratioP2;P2;SDS_P1;SDS_P2;PMS_P1;PMS_P2;Temp;Humidity;BMP_temperature;BMP_pressure;BME280_temperature;BME280_humidity;BME280_pressure;Samples;Min_cycle;Max_cycle;Signal;HPM_P1;HPM_P2
2022/11/25 00:00:23;;;;;;;6.50;2.30;;;;;;;8.12;96.85;100858.94;4955867;29;20030;-81
2022/11/25 00:02:48;;;;;;;8.18;1.83;;;;;;;8.16;96.80;100854.63;4957177;29;20494;-81
2022/11/25 00:05:14;;;;;;;7.78;2.22;;;;;;;8.17;96.91;100854.63;4955891;29;20026;-81
2022/11/25 00:07:39;;;;;;;7.33;2.10;;;;;;;8.19;97.17;100852.88;4956773;29;20058;-81
2022/11/25 00:10:05;;;;;;;5.43;1.77;;;;;;;8.22;97.07;100862.34;4956767;29;20062;-81
2022/11/25 00:12:30;;;;;;;4.05;1.70;;;;;;;8.22;97.15;100843.41;4955481;29;20118;-81
2022/11/25 00:14:56;;;;;;;5.43;1.60;;;;;;;8.24;97.27;100857.16;4957080;29;20051;-81
2022/11/25 00:17:21;;;;;;;6.17;1.90;;;;;;;8.24;97.44;100846.81;4955875;28;20106;-81
2022/11/25 00:19:47;;;;;;;5.47;1.90;;;;;;;8.26;97.29;100845.97;4955853;29;20027;-81
2022/11/25 00:22:16;;;;;;;7.20;2.08;;;;;;;8.24;97.43;100837.34;4953375;29;20040;-81
2022/11/25 00:24:44;;;;;;;5.28;1.80;;;;;;;8.28;96.93;100836.44;4956382;29;20019;-81
2022/11/25 00:27:13;;;;;;;6.00;1.83;;;;;;;8.26;97.69;100830.44;4955754;29;20035;-81
2022/11/25 00:29:50;;;;;;;11.32;2.38;;;;;;;8.30;96.87;100828.69;4956747;29;20019;-81
2022/11/25 00:32:25;;;;;;;5.68;2.00;;;;;;;8.33;96.79;100832.13;4956318;29;20038;-81
2022/11/25 00:34:59;;;;;;;6.53;1.95;;;;;;;8.31;97.19;100827.84;4955569;29;20035;-81
2022/11/25 00:37:33;;;;;;;5.57;1.83;;;;;;;8.33;97.29;100831.28;4955901;29;20027;-81
2022/11/25 00:40:02;;;;;;;9.60;1.90;;;;;;;8.33;97.28;100826.94;4955896;29;20118;-81
2022/11/25 00:45:26;;;;;;;8.07;1.90;;;;;;;8.37;96.72;100829.53;4956482;29;20038;-81
2022/11/25 00:47:52;;;;;;;6.97;1.90;;;;;;;8.39;96.95;100823.47;4955833;29;20110;-81
2022/11/25 00:50:18;;;;;;;5.28;1.70;;;;;;;8.42;96.55;100817.41;4955853;29;20406;-82
2022/11/25 00:52:43;;;;;;;4.60;1.57;;;;;;;8.39;96.84;100815.69;4956126;29;20035;-81
2022/11/25 00:55:08;;;;;;;4.60;1.70;;;;;;;8.38;97.17;100821.75;4955050;29;20027;-81
2022/11/25 00:57:33;;;;;;;8.82;2.08;;;;;;;8.40;97.08;100824.31;4955768;29;20031;-81
2022/11/25 00:59:59;;;;;;;9.32;2.30;;;;;;;8.40;97.20;100832.94;4955964;29;20074;-81
2022/11/25 01:02:24;;;;;;;6.37;2.20;;;;;;;8.43;96.75;100832.94;4954798;29;20023;-81
2022/11/25 01:04:49;;;;;;;6.55;2.17;;;;;;;8.41;96.88;100834.66;4956224;29;20487;-81
2022/11/25 01:07:15;;;;;;;5.57;1.70;;;;;;;8.42;97.16;100841.56;4955468;29;20143;-81
2022/11/25 01:09:41;;;;;;;2.38;1.30;;;;;;;8.42;97.35;100835.50;4955127;29;20024;-81
2022/11/25 01:12:06;;;;;;;4.00;1.50;;;;;;;8.40;97.22;100826.88;4955721;29;20023;-81
2022/11/25 01:14:32;;;;;;;5.50;1.60;;;;;;;8.42;97.11;100835.50;4955831;29;20034;-81
2022/11/25 01:16:57;;;;;;;7.50;1.97;;;;;;;8.47;96.86;100833.75;4955303;29;20476;-81
2022/11/25 01:19:23;;;;;;;8.60;2.33;;;;;;;8.53;96.33;100836.31;4955416;29;20042;-81
2022/11/25 01:21:48;;;;;;;9.30;2.53;;;;;;;8.53;96.66;100835.47;4955653;29;20031;-81
2022/11/25 01:24:14;;;;;;;6.00;1.87;;;;;;;8.53;96.71;100835.47;4954529;29;20027;-81
2022/11/25 01:26:41;;;;;;;5.80;1.90;;;;;;;8.54;97.01;100835.47;4955905;29;20031;-81
2022/11/25 01:29:12;;;;;;;3.92;1.42;;;;;;;8.53;96.77;100843.25;4955347;28;20373;-81
2022/11/25 01:31:37;;;;;;;5.60;1.88;;;;;;;8.52;96.78;100842.38;4954670;29;20030;-81
2022/11/25 01:34:07;;;;;;;6.17;1.77;;;;;;;8.54;96.86;100847.56;4955316;29;20114;-81
2022/11/25 01:36:32;;;;;;;3.83;1.45;;;;;;;8.53;96.92;100854.44;4954602;29;20123;-80
2022/11/25 01:38:59;;;;;;;6.63;1.83;;;;;;;8.55;96.84;100852.69;4955679;29;20035;-81
2022/11/25 01:41:26;;;;;;;;;;;;;;;8.57;96.66;100850.97;4955670;29;20039;-81
2022/11/25 01:44:26;;;;;;;8.10;2.08;;;;;;;8.56;97.19;100853.53;4954823;29;19914;-82
2022/11/25 01:46:57;;;;;;;7.85;1.80;;;;;;;8.59;97.00;100859.59;4941787;29;20037;-81
2022/11/25 01:49:43;;;;;;;10.45;2.17;;;;;;;8.61;96.66;100860.41;4955337;29;20090;-82
2022/11/25 01:52:20;;;;;;;10.30;2.40;;;;;;;8.61;97.16;100864.75;4954115;29;20476;-81
2022/11/25 01:54:59;;;;;;;7.97;2.10;;;;;;;8.67;96.80;100862.09;4955230;29;20027;-81
2022/11/25 01:57:37;;;;;;;7.28;2.08;;;;;;;8.68;97.13;100878.50;4954837;29;20033;-82
2022/11/25 02:00:06;;;;;;;7.22;1.98;;;;;;;8.67;97.21;100876.78;4954931;29;20031;-81
2022/11/25 02:02:32;;;;;;;7.40;1.98;;;;;;;8.69;97.24;100887.97;4955190;29;20380;-81
2022/11/25 02:04:59;;;;;;;8.17;2.10;;;;;;;8.69;97.24;100886.22;4954337;29;20142;-81
2022/11/25 02:07:33;;;;;;;10.38;2.35;;;;;;;8.71;97.15;100889.69;4954562;29;20123;-81
2022/11/25 02:10:00;;;;;;;4.55;1.70;;;;;;;8.70;97.17;100893.13;4954374;29;20035;-81
2022/11/25 02:12:27;;;;;;;7.53;2.10;;;;;;;8.70;97.23;100892.28;4954268;29;20043;-81
2022/11/25 02:14:54;;;;;;;4.93;1.80;;;;;;;8.73;97.21;100887.06;4955110;29;20027;-81
2022/11/25 02:17:19;;;;;;;5.07;1.80;;;;;;;8.72;97.50;100896.56;4954718;29;20027;-81
2022/11/25 02:19:56;;;;;;;5.70;1.80;;;;;;;8.75;97.08;100903.44;4953644;29;20085;-81
2022/11/25 02:22:31;;;;;;;5.82;1.98;;;;;;;8.74;97.50;100910.34;4954099;29;20398;-81
2022/11/25 02:25:06;;;;;;;6.40;1.90;;;;;;;8.73;97.68;100907.75;4954974;29;20056;-81
2022/11/25 02:27:31;;;;;;;6.93;1.83;;;;;;;8.72;97.44;100904.34;4954042;29;20498;-81
2022/11/25 02:29:56;;;;;;;6.13;1.93;;;;;;;8.75;97.20;100906.91;4954555;29;20027;-81
2022/11/25 02:32:22;;;;;;;5.43;1.80;;;;;;;8.73;97.63;100906.06;4954509;29;20023;-82
2022/11/25 02:34:48;;;;;;;5.27;1.90;;;;;;;8.71;98.49;100909.53;4953884;29;20035;-82
2022/11/25 02:37:18;;;;;;;8.13;2.00;;;;;;;8.66;98.77;100919.91;4954475;29;20035;-82
2022/11/25 02:39:44;;;;;;;5.30;1.50;;;;;;;8.65;98.32;100923.38;4954268;29;20039;-82
2022/11/25 02:42:10;;;;;;;;;;;;;;;8.62;98.54;100923.38;4957051;28;20023;-83
2022/11/25 02:44:35;;;;;;;4.80;1.80;;;;;;;8.57;99.32;100928.56;4958686;29;19938;-83
2022/11/25 02:47:00;;;;;;;3.90;1.60;;;;;;;8.54;99.18;100927.75;4957605;29;20023;-83
2022/11/25 02:49:26;;;;;;;4.30;1.60;;;;;;;8.52;99.41;100932.06;4957747;29;20032;-84
2022/11/25 02:51:51;;;;;;;4.77;1.67;;;;;;;8.49;99.88;100930.34;4958733;29;20030;-84
2022/11/25 02:54:16;;;;;;;3.17;1.45;;;;;;;8.45;100.00;100928.59;4957526;29;20491;-84
2022/11/25 02:56:42;;;;;;;3.17;1.42;;;;;;;8.41;100.00;100925.19;4958215;29;20026;-84
2022/11/25 02:59:08;;;;;;;4.43;1.87;;;;;;;8.39;100.00;100921.75;4957781;29;20381;-84
2022/11/25 03:01:34;;;;;;;5.07;1.53;;;;;;;8.38;100.00;100914.84;4957701;29;20055;-85
2022/11/25 03:03:59;;;;;;;3.67;1.53;;;;;;;8.35;100.00;100900.22;4958208;29;20019;-84
2022/11/25 03:06:25;;;;;;;4.70;1.57;;;;;;;8.32;100.00;100845.06;4957995;29;20043;-84
2022/11/25 03:08:50;;;;;;;5.37;1.40;;;;;;;8.29;100.00;100858.00;4957558;29;20464;-84
2022/11/25 03:11:15;;;;;;;3.30;1.40;;;;;;;8.25;100.00;100838.19;4957539;29;20087;-84
2022/11/25 03:13:41;;;;;;;2.63;1.30;;;;;;;8.21;100.00;100844.28;4958122;29;20031;-83
2022/11/25 03:16:06;;;;;;;4.60;1.40;;;;;;;8.24;99.78;100855.44;4957146;29;20034;-83
2022/11/25 03:18:32;;;;;;;3.40;1.63;;;;;;;8.19;100.00;100868.41;4957952;29;20465;-83
2022/11/25 03:20:58;;;;;;;1.73;1.30;;;;;;;8.18;100.00;100874.44;4957722;29;20383;-83
2022/11/25 03:23:23;;;;;;;2.95;1.20;;;;;;;8.17;100.00;100889.94;4956870;29;20046;-83
2022/11/25 03:25:49;;;;;;;2.93;1.20;;;;;;;8.14;100.00;100896.00;4957808;29;20055;-83
2022/11/25 03:28:14;;;;;;;1.07;0.97;;;;;;;8.14;100.00;100902.91;4957620;29;20027;-83
2022/11/25 03:30:39;;;;;;;2.60;0.93;;;;;;;8.12;100.00;100895.13;4957093;29;20059;-83
2022/11/25 03:33:04;;;;;;;1.02;0.85;;;;;;;8.10;100.00;100883.97;4957049;29;20031;-82
2022/11/25 03:35:30;;;;;;;1.40;0.93;;;;;;;8.09;100.00;100889.13;4957752;29;20030;-83
2022/11/25 03:37:55;;;;;;;1.20;0.77;;;;;;;8.07;100.00;100902.06;4957131;29;20081;-83
2022/11/25 03:40:20;;;;;;;1.57;0.90;;;;;;;8.09;100.00;100931.34;4957068;29;20042;-83
2022/11/25 03:42:46;;;;;;;0.50;0.50;;;;;;;8.08;100.00;100937.38;4957600;29;20034;-83
2022/11/25 03:45:14;;;;;;;1.50;0.80;;;;;;;8.07;100.00;100932.19;4956387;29;20042;-83
2022/11/25 03:47:40;;;;;;;0.70;0.70;;;;;;;8.06;100.00;100933.94;4957509;29;20027;-83
2022/11/25 03:50:06;;;;;;;0.88;0.60;;;;;;;8.04;100.00;100933.09;4956709;29;20396;-82
2022/11/25 03:52:31;;;;;;;0.50;0.50;;;;;;;8.02;100.00;100927.94;4955778;28;20028;-83
2022/11/25 03:54:56;;;;;;;0.70;0.70;;;;;;;8.02;100.00;100930.50;4957263;29;20491;-83
2022/11/25 03:57:22;;;;;;;0.57;0.40;;;;;;;7.99;100.00;100930.50;4956616;29;20038;-83
2022/11/25 03:59:47;;;;;;;1.50;0.43;;;;;;;7.98;100.00;100936.53;4957378;29;20540;-84
2022/11/25 04:02:13;;;;;;;0.63;0.50;;;;;;;7.98;100.00;100939.13;4956326;29;20031;-83
2022/11/25 04:04:38;;;;;;;0.40;0.40;;;;;;;7.97;100.00;100946.91;4956351;29;20046;-83
2022/11/25 04:07:04;;;;;;;0.47;0.40;;;;;;;7.94;100.00;100946.91;4956696;28;20094;-83
2022/11/25 04:09:29;;;;;;;1.57;0.40;;;;;;;7.91;100.00;100940.03;4956984;29;20058;-83
2022/11/25 04:14:39;;;;;;;0.20;0.20;;;;;;;7.86;100.00;100950.38;4957330;29;20070;-83
2022/11/25 04:17:04;;;;;;;1.43;0.50;;;;;;;7.85;100.00;100958.09;4956454;29;20476;-83
2022/11/25 04:19:29;;;;;;;1.93;0.80;;;;;;;7.82;100.00;100958.97;4955866;29;20118;-83
2022/11/25 04:21:58;;;;;;;0.60;0.47;;;;;;;7.81;100.00;100966.75;4957067;29;20058;-83
2022/11/25 04:24:24;;;;;;;1.40;0.47;;;;;;;7.78;100.00;100965.00;4956569;29;20375;-83
2022/11/25 04:26:49;;;;;;;0.73;0.53;;;;;;;7.76;100.00;100969.34;4955848;29;20023;-83
2022/11/25 04:29:14;;;;;;;0.60;0.60;;;;;;;7.72;100.00;100972.78;4956819;29;20038;-83
2022/11/25 04:31:40;;;;;;;0.70;0.57;;;;;;;7.69;100.00;100977.94;4957234;29;20031;-83
2022/11/25 04:34:05;;;;;;;0.40;0.40;;;;;;;7.64;100.00;100987.44;4955618;29;20035;-83
2022/11/25 04:36:30;;;;;;;1.40;0.77;;;;;;;7.61;100.00;100990.03;4956511;29;20150;-83
2022/11/25 04:38:55;;;;;;;0.57;0.50;;;;;;;7.60;100.00;100996.88;4956556;29;20027;-83
2022/11/25 04:41:21;;;;;;;1.63;0.60;;;;;;;7.60;100.00;101003.78;4955464;29;20039;-83
2022/11/25 04:43:46;;;;;;;0.47;0.43;;;;;;;7.57;100.00;101008.09;4956490;29;20019;-83
2022/11/25 04:46:21;;;;;;;1.52;0.52;;;;;;;7.55;100.00;101003.78;4955925;29;20023;-83
2022/11/25 04:48:46;;;;;;;0.63;0.40;;;;;;;7.54;100.00;101002.91;4955557;29;20031;-82
2022/11/25 04:51:11;;;;;;;2.70;0.67;;;;;;;7.54;100.00;101007.25;4956128;29;20030;-83
2022/11/25 04:53:37;;;;;;;1.42;0.98;;;;;;;7.52;100.00;101007.25;4955408;29;20120;-83
2022/11/25 04:56:02;;;;;;;0.43;0.43;;;;;;;7.52;100.00;101007.25;4955560;29;20035;-83
2022/11/25 05:01:12;;;;;;;1.00;0.73;;;;;;;7.51;100.00;101008.09;4955597;29;20566;-83
2022/11/25 05:03:37;;;;;;;1.10;0.57;;;;;;;7.49;100.00;101015.00;4955727;28;20055;-83
2022/11/25 05:06:07;;;;;;;0.95;0.60;;;;;;;7.48;100.00;101022.75;4955781;29;20045;-83
2022/11/25 05:08:32;;;;;;;2.03;0.70;;;;;;;7.45;100.00;101023.59;4950785;29;20448;-83
2022/11/25 05:10:58;;;;;;;0.87;0.60;;;;;;;7.44;100.00;101031.34;4955932;29;20027;-83
2022/11/25 05:13:23;;;;;;;0.75;0.73;;;;;;;7.41;100.00;101043.38;4955546;29;20029;-82
2022/11/25 05:15:49;;;;;;;2.03;0.77;;;;;;;7.40;100.00;101030.47;4954982;29;20074;-83
2022/11/25 05:18:14;;;;;;;0.87;0.83;;;;;;;7.38;100.00;101038.22;4955479;29;20472;-83
2022/11/25 05:20:39;;;;;;;0.68;0.60;;;;;;;7.40;100.00;101030.47;4955503;29;20085;-83
2022/11/25 05:23:04;;;;;;;0.77;0.50;;;;;;;7.37;100.00;101025.31;4954808;29;20336;-83
2022/11/25 05:25:30;;;;;;;0.70;0.70;;;;;;;7.34;100.00;101026.19;4955498;29;20066;-83
2022/11/25 05:27:55;;;;;;;1.23;0.80;;;;;;;7.31;100.00;101031.31;4955318;29;20038;-83
2022/11/25 05:30:20;;;;;;;1.55;0.88;;;;;;;7.26;100.00;101030.47;4954359;29;20497;-83
2022/11/25 05:32:46;;;;;;;1.42;0.93;;;;;;;7.23;100.00;101028.72;4955570;29;20024;-83
2022/11/25 05:35:11;;;;;;;1.50;0.90;;;;;;;7.18;100.00;101038.19;4955190;29;20019;-83
2022/11/25 05:37:37;;;;;;;1.23;0.82;;;;;;;7.14;100.00;101044.19;4954773;29;20404;-83
2022/11/25 05:40:03;;;;;;;1.13;1.03;;;;;;;7.11;100.00;101037.31;4955328;29;20031;-83
2022/11/25 05:42:28;;;;;;;2.00;0.90;;;;;;;7.08;100.00;101042.47;4955042;29;20027;-83
2022/11/25 05:44:54;;;;;;;2.37;1.10;;;;;;;7.06;100.00;101046.75;4954885;29;20038;-83
2022/11/25 05:47:19;;;;;;;1.70;1.10;;;;;;;7.04;100.00;101047.63;4954988;29;20078;-83
2022/11/25 05:49:44;;;;;;;1.50;0.97;;;;;;;7.02;100.00;101049.34;4954489;29;20054;-83
2022/11/25 05:52:09;;;;;;;1.23;1.07;;;;;;;6.99;100.00;101046.72;4955098;29;20109;-83
2022/11/25 05:54:35;;;;;;;1.43;0.77;;;;;;;6.94;100.00;101049.31;4955336;29;20404;-83
2022/11/25 05:57:00;;;;;;;2.67;1.23;;;;;;;6.95;100.00;101057.06;4954414;29;20033;-83
2022/11/25 05:59:26;;;;;;;1.75;1.20;;;;;;;6.91;100.00;101059.63;4954473;29;20031;-83
2022/11/25 06:01:52;;;;;;;2.83;1.40;;;;;;;6.90;100.00;101060.50;4955197;29;20027;-83
2022/11/25 06:04:17;;;;;;;1.50;1.20;;;;;;;6.84;100.00;101065.59;4954268;29;20027;-83
2022/11/25 06:06:43;;;;;;;2.00;1.30;;;;;;;6.83;100.00;101062.19;4954476;29;20039;-83
2022/11/25 06:09:08;;;;;;;2.13;1.38;;;;;;;6.80;100.00;101064.75;4955020;29;20070;-84
2022/11/25 06:11:33;;;;;;;2.42;1.38;;;;;;;6.76;100.00;101065.56;4953989;29;20126;-83
2022/11/25 06:13:59;;;;;;;1.10;1.00;;;;;;;6.73;100.00;101074.19;4954559;29;20031;-83
2022/11/25 06:16:24;;;;;;;1.70;1.17;;;;;;;6.71;100.00;101075.88;4953574;28;20045;-83
2022/11/25 06:18:50;;;;;;;1.87;1.00;;;;;;;6.70;100.00;101081.88;4954122;29;20460;-83
2022/11/25 06:21:15;;;;;;;1.60;1.17;;;;;;;6.68;100.00;101072.44;4954177;29;20031;-83
2022/11/25 06:23:43;;;;;;;1.20;0.90;;;;;;;6.66;100.00;101080.16;4954625;29;20054;-83
2022/11/25 06:26:13;;;;;;;1.48;1.05;;;;;;;6.64;100.00;101077.56;4953746;29;20102;-82
2022/11/25 06:28:39;;;;;;;1.08;0.90;;;;;;;6.63;100.00;101088.75;4954488;29;20052;-83
2022/11/25 06:31:10;;;;;;;2.70;1.23;;;;;;;6.62;100.00;101092.19;4954228;29;20034;-82
2022/11/25 06:33:36;;;;;;;2.97;1.50;;;;;;;6.60;100.00;101086.16;4954038;29;20058;-83
2022/11/25 06:36:08;;;;;;;1.10;0.93;;;;;;;6.58;100.00;101093.03;4954591;29;20027;-83
2022/11/25 06:38:34;;;;;;;2.78;1.38;;;;;;;6.58;100.00;101102.50;4954429;29;20058;-83
2022/11/25 06:41:04;;;;;;;2.47;1.30;;;;;;;6.56;100.00;101097.31;4953825;29;20027;-83
2022/11/25 06:43:31;;;;;;;1.40;1.20;;;;;;;6.56;100.00;101110.19;4954699;29;20099;-83
2022/11/25 06:46:04;;;;;;;2.25;1.35;;;;;;;6.55;100.00;101111.03;4954119;29;20028;-83
2022/11/25 06:48:29;;;;;;;2.97;1.50;;;;;;;6.54;100.00;101113.63;4954372;29;20175;-83
2022/11/25 06:50:59;;;;;;;2.90;1.70;;;;;;;6.51;100.00;101117.06;4953467;29;20541;-82
2022/11/25 06:53:26;;;;;;;1.70;1.45;;;;;;;6.51;100.00;101119.63;4953461;29;20043;-83
2022/11/25 06:56:11;;;;;;;2.58;1.70;;;;;;;6.48;100.00;101119.63;4954699;29;20019;-83
2022/11/25 06:58:37;;;;;;;0.95;0.95;;;;;;;6.46;100.00;101111.88;4954329;29;20029;-83
2022/11/25 07:01:21;;;;;;;1.38;1.17;;;;;;;6.45;100.00;101114.44;4953403;29;20069;-83
2022/11/25 07:03:52;;;;;;;1.55;1.35;;;;;;;6.43;100.00;101127.31;4954591;29;20062;-83
2022/11/25 07:06:18;;;;;;;3.45;2.03;;;;;;;6.42;100.00;101128.16;4953976;29;20155;-83
2022/11/25 07:08:44;;;;;;;1.90;1.50;;;;;;;6.39;100.00;101135.88;4953661;29;20042;-83
2022/11/25 07:11:15;;;;;;;1.23;1.10;;;;;;;6.37;100.00;101134.16;4953815;29;20122;-83
2022/11/25 07:13:41;;;;;;;1.60;1.50;;;;;;;6.32;100.00;101137.53;4954218;29;20019;-83
2022/11/25 07:16:06;;;;;;;2.30;1.30;;;;;;;6.30;100.00;101147.00;4952382;29;20037;-81
2022/11/25 07:18:34;;;;;;;1.35;0.90;;;;;;;6.25;100.00;101146.09;4954062;29;20118;-82
2022/11/25 07:21:06;;;;;;;1.45;1.35;;;;;;;6.23;100.00;101147.78;4954278;29;20032;-82
2022/11/25 07:23:33;;;;;;;2.95;1.13;;;;;;;6.20;100.00;101157.22;4953949;29;20110;-82
2022/11/25 07:26:04;;;;;;;2.22;1.27;;;;;;;6.17;100.00;101160.66;4954183;29;20034;-84
2022/11/25 07:28:29;;;;;;;2.08;1.20;;;;;;;6.17;100.00;101166.66;4956184;28;20539;-85
2022/11/25 07:30:55;;;;;;;0.93;0.80;;;;;;;6.16;100.00;101167.50;4957900;29;20055;-85
2022/11/25 07:33:20;;;;;;;2.13;1.37;;;;;;;6.12;100.00;101175.19;4957738;29;20027;-84
2022/11/25 07:35:47;;;;;;;1.45;1.35;;;;;;;6.10;100.00;101182.03;4957144;29;20035;-84
2022/11/25 07:38:12;;;;;;;2.38;1.40;;;;;;;6.09;100.00;101180.31;4980799;23;20080;-85
2022/11/25 07:40:37;;;;;;;1.20;1.10;;;;;;;6.07;100.00;101185.47;4996345;28;20486;-85
2022/11/25 07:43:03;;;;;;;1.23;1.10;;;;;;;6.07;100.00;101189.78;4994853;28;20030;-84
2022/11/25 07:45:28;;;;;;;1.92;1.17;;;;;;;6.07;100.00;101200.09;4996603;28;20026;-84
2022/11/25 07:47:53;;;;;;;2.13;1.08;;;;;;;6.07;100.00;101202.66;4996586;28;20045;-84
2022/11/25 07:50:19;;;;;;;1.52;1.00;;;;;;;6.09;100.00;101214.69;4995088;28;20117;-85
2022/11/25 07:52:45;;;;;;;1.27;1.08;;;;;;;6.10;100.00;101218.13;4996322;28;20459;-84
2022/11/25 07:55:10;;;;;;;1.10;1.00;;;;;;;6.11;100.00;101222.44;4995980;28;20025;-85
2022/11/25 07:57:35;;;;;;;1.70;1.00;;;;;;;6.11;100.00;101218.16;4995442;28;20030;-84
2022/11/25 08:00:01;;;;;;;0.90;0.90;;;;;;;6.12;100.00;101229.31;4996092;28;20037;-84
2022/11/25 08:02:26;;;;;;;1.83;1.10;;;;;;;6.12;100.00;101234.47;4995618;28;20527;-84
2022/11/25 08:04:51;;;;;;;2.75;1.40;;;;;;;6.14;100.00;101232.78;4995234;28;20022;-85
2022/11/25 08:07:16;;;;;;;2.42;1.38;;;;;;;6.12;100.00;101237.94;4995475;28;20081;-85
2022/11/25 08:09:42;;;;;;;3.15;1.50;;;;;;;6.14;100.00;101254.25;4995504;28;20034;-84
2022/11/25 08:12:07;;;;;;;2.72;1.48;;;;;;;6.16;100.00;101259.44;4994524;28;20057;-83
2022/11/25 08:14:33;;;;;;;2.80;1.50;;;;;;;6.16;100.00;101257.69;4995073;28;20113;-84
2022/11/25 08:16:59;;;;;;;1.20;1.10;;;;;;;6.20;100.00;101262.91;4996005;28;20025;-83
2022/11/25 08:19:24;;;;;;;2.80;1.40;;;;;;;6.22;100.00;101268.94;4994513;28;20026;-83
2022/11/25 08:21:49;;;;;;;1.88;1.40;;;;;;;6.24;100.00;101269.81;4995710;28;20459;-81
2022/11/25 08:24:17;;;;;;;2.78;1.33;;;;;;;6.27;100.00;101265.56;4995150;28;20026;-82
2022/11/25 08:26:43;;;;;;;2.03;1.38;;;;;;;6.33;100.00;101265.59;4994521;28;20033;-82
2022/11/25 08:29:13;;;;;;;1.25;1.15;;;;;;;6.40;100.00;101270.81;4995169;28;20038;-82
2022/11/25 08:31:38;;;;;;;2.53;1.10;;;;;;;6.45;100.00;101276.88;4994123;28;20027;-82
2022/11/25 08:34:05;;;;;;;1.48;1.38;;;;;;;6.48;100.00;101272.59;4995173;28;20022;-82
2022/11/25 08:36:31;;;;;;;3.90;1.60;;;;;;;6.54;100.00;101276.94;4995562;28;20371;-82
2022/11/25 08:38:59;;;;;;;1.83;1.40;;;;;;;6.57;100.00;101271.81;4993823;28;20046;-82
2022/11/25 08:41:35;;;;;;;3.13;1.58;;;;;;;6.64;100.00;101275.31;4995072;28;20390;-82
2022/11/25 08:44:02;;;;;;;4.28;1.80;;;;;;;6.69;100.00;101270.19;4995562;28;20438;-82
2022/11/25 08:46:32;;;;;;;3.05;1.70;;;;;;;6.73;100.00;101272.78;4994174;28;20034;-82
2022/11/25 08:48:58;;;;;;;2.25;1.60;;;;;;;6.81;100.00;101280.59;4995406;28;20058;-82
2022/11/25 08:51:27;;;;;;;1.92;1.42;;;;;;;6.88;100.00;101273.78;4994930;28;20360;-82
2022/11/25 08:53:53;;;;;;;3.22;1.80;;;;;;;6.93;100.00;101274.66;4994324;28;20018;-82
2022/11/25 08:56:21;;;;;;;5.35;1.90;;;;;;;6.99;100.00;101277.28;4994865;28;20124;-82
2022/11/25 08:58:50;;;;;;;4.43;1.70;;;;;;;7.06;100.00;101285.94;4995174;28;20026;-82
2022/11/25 09:01:17;;;;;;;2.72;1.80;;;;;;;7.12;100.00;101285.97;4994173;28;20026;-82
2022/11/25 09:03:47;;;;;;;3.20;1.90;;;;;;;7.19;100.00;101286.88;4995059;28;20022;-83
2022/11/25 09:06:13;;;;;;;4.13;2.00;;;;;;;7.23;100.00;101297.22;4994521;28;20069;-83
2022/11/25 09:08:40;;;;;;;4.37;1.90;;;;;;;7.32;100.00;101295.56;4994158;28;20022;-83
2022/11/25 09:11:07;;;;;;;5.00;1.90;;;;;;;7.38;100.00;101304.19;4994217;28;20030;-84
2022/11/25 09:13:32;;;;;;;3.65;2.00;;;;;;;7.44;100.00;101298.19;4994580;28;20546;-83
2022/11/25 09:15:58;;;;;;;6.53;2.30;;;;;;;7.52;100.00;101301.69;4994219;28;20097;-83
2022/11/25 09:18:25;;;;;;;4.28;2.10;;;;;;;7.57;100.00;101302.56;4994348;28;20093;-83
2022/11/25 09:20:51;;;;;;;3.10;1.90;;;;;;;7.66;100.00;101303.44;4992924;28;20026;-83
2022/11/25 09:23:16;;;;;;;5.93;2.05;;;;;;;7.75;100.00;101318.13;4994137;28;20113;-83
2022/11/25 09:25:49;;;;;;;4.28;2.20;;;;;;;7.81;100.00;101310.41;4994731;28;20121;-83
2022/11/25 09:28:15;;;;;;;6.18;2.40;;;;;;;7.89;100.00;101327.66;4993587;28;20027;-83
2022/11/25 09:30:40;;;;;;;4.50;2.37;;;;;;;7.96;100.00;101327.69;4993487;28;20057;-86
2022/11/25 09:33:05;;;;;;;5.83;2.17;;;;;;;8.02;100.00;101330.28;4994231;28;20030;-86
2022/11/25 09:35:30;;;;;;;5.20;2.30;;;;;;;8.09;100.00;101334.63;4993125;28;20426;-86
2022/11/25 09:37:56;;;;;;;3.40;2.20;;;;;;;8.17;100.00;101335.50;4994882;28;20050;-89
2022/11/25 09:40:33;;;;;;;3.83;2.17;;;;;;;8.26;100.00;101342.44;4994523;28;20050;-89
2022/11/25 09:46:40;;;;;;;4.63;2.10;;;;;;;8.41;100.00;101351.94;4970875;28;20035;-83
2022/11/25 09:49:30;;;;;;;4.88;2.10;;;;;;;8.50;100.00;101362.34;4993354;28;20038;-83
2022/11/25 09:52:21;;;;;;;4.95;2.20;;;;;;;8.57;100.00;101357.16;4994267;28;20030;-83
2022/11/25 09:55:09;;;;;;;4.45;2.10;;;;;;;8.66;100.00;101370.13;4993801;28;20034;-82
2022/11/25 09:57:52;;;;;;;3.80;2.22;;;;;;;8.72;100.00;101372.72;4993592;28;20022;-81
2022/11/25 10:00:19;;;;;;;4.35;2.30;;;;;;;8.79;100.00;101371.00;4991511;28;20128;-82
2022/11/25 10:02:58;;;;;;;5.18;2.25;;;;;;;8.85;100.00;101373.56;4992916;28;20418;-82
2022/11/25 10:05:36;;;;;;;5.15;1.95;;;;;;;8.92;100.00;101369.25;4993381;28;20061;-82
2022/11/25 10:08:13;;;;;;;4.90;2.25;;;;;;;9.01;100.00;101368.41;4993835;28;20030;-82
2022/11/25 10:11:06;;;;;;;3.80;2.08;;;;;;;9.09;100.00;101377.91;4993048;28;20037;-82
2022/11/25 10:13:39;;;;;;;5.53;2.00;;;;;;;9.18;100.00;101382.19;4981668;28;20431;-82
2022/11/25 10:16:13;;;;;;;3.70;1.98;;;;;;;9.23;100.00;101388.25;4993193;28;20121;-81
2022/11/25 10:18:44;;;;;;;3.75;2.05;;;;;;;9.30;100.00;101398.59;4992634;28;20026;-82
2022/11/25 10:21:10;;;;;;;6.13;2.30;;;;;;;9.36;98.89;101402.03;4993513;28;20050;-82
2022/11/25 10:23:38;;;;;;;5.97;2.40;;;;;;;9.38;98.79;101405.50;4993613;28;20432;-82
2022/11/25 10:26:21;;;;;;;4.35;1.90;;;;;;;9.44;99.35;101420.16;4992614;28;20046;-81
2022/11/25 10:28:59;;;;;;;2.65;1.88;;;;;;;9.50;99.34;101414.09;4981674;28;20046;-82
2022/11/25 10:31:32;;;;;;;4.07;2.08;;;;;;;9.55;99.17;101412.38;4992462;28;20081;-81
2022/11/25 10:33:59;;;;;;;4.50;2.03;;;;;;;9.61;98.09;101411.50;4992772;28;20110;-82
2022/11/25 10:36:29;;;;;;;5.15;2.20;;;;;;;9.65;97.17;101419.28;4993040;28;20045;-82
2022/11/25 10:39:06;;;;;;;3.75;2.10;;;;;;;9.70;97.15;101419.25;4992316;28;20074;-82
2022/11/25 10:41:43;;;;;;;3.42;1.80;;;;;;;9.76;97.28;101426.16;4993541;28;20022;-82
2022/11/25 10:44:32;;;;;;;5.47;1.80;;;;;;;9.81;96.53;101425.28;4993117;28;20014;-83
2022/11/25 10:47:16;;;;;;;5.13;2.22;;;;;;;9.85;96.52;101432.16;4992358;28;20054;-84
2022/11/25 10:50:14;;;;;;;6.03;2.10;;;;;;;9.90;95.54;101429.59;4993398;28;20042;-82
2022/11/25 10:52:54;;;;;;;5.55;2.03;;;;;;;9.97;96.42;101435.59;4992510;28;20022;-82
2022/11/25 10:55:26;;;;;;;4.82;2.15;;;;;;;10.02;93.64;101439.88;4993324;28;20053;-81
2022/11/25 10:57:52;;;;;;;6.97;2.30;;;;;;;10.05;93.03;101439.03;4988725;28;20026;-82
2022/11/25 11:00:30;;;;;;;3.90;1.80;;;;;;;10.12;94.95;101448.50;4991861;28;20566;-82
2022/11/25 11:02:56;;;;;;;4.75;1.80;;;;;;;10.18;95.32;101442.44;4995559;28;20042;-82
2022/11/25 11:05:44;;;;;;;3.53;1.48;;;;;;;10.26;94.93;101453.63;4996785;28;20851;-82
2022/11/25 11:08:12;;;;;;;5.53;1.73;;;;;;;10.30;92.37;101444.13;4996312;28;20026;-82
2022/11/25 11:10:38;;;;;;;3.25;1.60;;;;;;;10.33;93.81;101444.97;4997056;28;20080;-82
2022/11/25 11:13:18;;;;;;;3.83;1.92;;;;;;;10.37;92.80;101451.00;4996837;28;20033;-81
2022/11/25 11:15:46;;;;;;;3.33;1.45;;;;;;;10.38;93.37;101452.78;4996706;28;20018;-81
2022/11/25 11:18:24;;;;;;;4.75;1.60;;;;;;;10.43;92.18;101461.38;4996958;28;20057;-81
2022/11/25 11:20:52;;;;;;;2.40;1.33;;;;;;;10.46;92.40;101471.75;4996229;28;20081;-81
2022/11/25 11:23:18;;;;;;;1.20;1.10;;;;;;;10.53;92.88;101474.34;4996335;28;20106;-81
2022/11/25 11:26:03;;;;;;;4.17;1.83;;;;;;;10.57;89.50;101478.63;4996621;28;20110;-82
2022/11/25 11:28:37;;;;;;;4.82;2.08;;;;;;;10.55;88.84;101480.34;4996320;28;20073;-81
2022/11/25 11:31:07;;;;;;;2.45;1.50;;;;;;;10.57;91.30;101476.03;4996535;28;20046;-82
2022/11/25 11:33:47;;;;;;;2.70;1.55;;;;;;;10.58;90.65;101486.41;4996776;28;20114;-82
2022/11/25 11:36:34;;;;;;;2.42;1.65;;;;;;;10.59;88.28;101495.91;4995276;28;20502;-81
2022/11/25 11:39:23;;;;;;;5.13;2.10;;;;;;;10.57;90.22;101486.41;4996463;28;20134;-81
2022/11/25 11:41:59;;;;;;;4.35;1.50;;;;;;;10.57;89.56;101492.47;4995579;28;20177;-81
2022/11/25 11:44:40;;;;;;;6.20;2.30;;;;;;;10.60;87.18;101497.63;4996169;28;20446;-81
2022/11/25 11:47:17;;;;;;;3.95;1.75;;;;;;;10.61;88.42;101496.75;4995972;28;20525;-81